CYSPCYQT

Guest
Details From CYSP - MARATHON
To CYQT - Thunder Bay
Flight Number -
Tags generated
Created
Modified
Stats Distance 125 nm / 232 km
Max Altitude 5,300 ft / 1,615 m
Waypoints 3
Social Downloads 0
Likes 0
Share VATSIM

Download

Looking for another format? Having issues loading an existing format? Contact us
Advertisement - Login to hide

Notes

Basic altitude profile: - Ascent Rate: 2500ft/min - Ascent Speed: 250kts - Cruise Altitude: 35000ft - Cruise Speed: 420kts - Descent Rate: 1500ft/min - Descent Speed: 250kts Options: - Use NATs: yes - Use PACOTS: yes - Use low airways: yes - Use high airways: yes

Route

CYSP YQT28 CYQT

ID Type Via Altitude Latitude Longitude Leg Dist Tot Dist Heading (true) Name
O CYSP APT - 0 ft / 0 m 48.75528˚ -86.34444˚ - 0 nm - MARATHON
YQT28 FIX - 5,300 ft / 1,615 m 48.23392˚ -88.74003˚ 100 nm 100 nm 253° / 251° -
O CYQT APT - 0 ft / 0 m 48.37204˚ -89.32512˚ 24 nm 125 nm 290° / 289° Thunder Bay

Altitude Profile

Advertisement - Login to hide

CYSP

Details ICAO CYSP (YSP)
Name MARATHON
Region Canada
Timezone America/Toronto (UTC-5.0)
Stats Elevation 1,035 ft / 315 m (AMSL)
Location 48.755278° -86.344444°
Runways 1
Magnetic Variation 6.465° W

METAR

CYSP 142100Z 00000KT 15SM FEW013 BKN048 BKN210 M14/M18 A2985 RMK SC2SC3CI2 SLP142

Decode

TAF

TAF CYSP 141954Z 1420/1422 VRB03KT P6SM BKN050 RMK NXT FCST WILL BE ISSUED AT 151445Z

Decode

Departure Runways

ID Width Length Bearing (true) Bearing (mag) Surface Threshold Offset Overrun Length
16 100 ft / 30 m 3,860 ft / 1,176 m 153.24° 159.70° Asphalt 0 ft / 0 m 0 ft / 0 m
34 100 ft / 30 m 3,860 ft / 1,176 m 333.24° 339.70° Asphalt 200 ft / 61 m 0 ft / 0 m

CYQT

Details ICAO CYQT (YQT)
Name Thunder Bay
Region Canada
Timezone America/Thunder_Bay (UTC-5.0)
Stats Elevation 653 ft / 199 m (AMSL)
Location 48.372036° -89.325122°
Runways 2
Magnetic Variation 3.734° W

METAR

CYQT 142100Z 23005KT 20SM FEW026 OVC065 M09/M12 A2991 RMK SC1SC7 SLP150

Decode

TAF

TAF CYQT 141938Z 1420/1508 26005KT P6SM FEW020 OVC060 FM150100 28006KT P6SM FEW020 OVC040 TEMPO 1501/1505 4SM -SN OVC020 FM150500 29006KT P6SM -SN OVC030 TEMPO 1505/1508 2SM -SN OVC020 RMK NXT FCST BY 150200Z

Decode

Destination Runways

ID Width Length Bearing (true) Bearing (mag) Surface Threshold Offset Overrun Length
07 200 ft / 61 m 6,206 ft / 1,892 m 70.47° 74.20° Asphalt 0 ft / 0 m 0 ft / 0 m
12 200 ft / 61 m 5,305 ft / 1,617 m 121.57° 125.30° Asphalt 0 ft / 0 m 0 ft / 0 m
25 200 ft / 61 m 6,206 ft / 1,892 m 250.49° 254.22° Asphalt 0 ft / 0 m 0 ft / 0 m
30 200 ft / 61 m 5,305 ft / 1,617 m 301.58° 305.31° Asphalt 0 ft / 0 m 0 ft / 0 m

Approach Navaids

Runway Type Ident Frequency Range Bearing (true) Bearing (mag) Slope Elevation
07 Localiser IQT 109.50 MHz 18 nm / 33 km 70.53° 74.26° - 653 ft / 199 m (AMSL)
07 Glidescope IQT 109.50 MHz 10 nm / 19 km 74.00° 77.73° 3.00° 653 ft / 199 m (AMSL)

Popular Alternatives